sensor_id;sensor_type;location;lat;lon;timestamp;pressure;altitude;pressure_sealevel;temperature;humidity
84712;BME280;74937;44.534;18.684;2024-01-30T00:01:53;101045.91;;;0.07;66.51
84712;BME280;74937;44.534;18.684;2024-01-30T00:04:19;101051.94;;;0.16;66.45
84712;BME280;74937;44.534;18.684;2024-01-30T00:06:45;101052.81;;;0.14;66.34
84712;BME280;74937;44.534;18.684;2024-01-30T00:09:11;101058.00;;;0.20;66.63
84712;BME280;74937;44.534;18.684;2024-01-30T00:11:39;101043.28;;;0.19;66.54
84712;BME280;74937;44.534;18.684;2024-01-30T00:14:05;101057.13;;;0.22;66.44
84712;BME280;74937;44.534;18.684;2024-01-30T00:16:31;101065.75;;;0.26;66.03
84712;BME280;74937;44.534;18.684;2024-01-30T00:18:57;101064.03;;;0.33;66.02
84712;BME280;74937;44.534;18.684;2024-01-30T00:21:23;101055.38;;;0.18;66.32
84712;BME280;74937;44.534;18.684;2024-01-30T00:23:49;101063.16;;;0.17;66.67
84712;BME280;74937;44.534;18.684;2024-01-30T00:26:14;101055.38;;;0.09;67.19
84712;BME280;74937;44.534;18.684;2024-01-30T00:28:41;101057.13;;;0.07;67.20
84712;BME280;74937;44.534;18.684;2024-01-30T00:31:07;101059.72;;;0.09;67.39
84712;BME280;74937;44.534;18.684;2024-01-30T00:33:32;101060.59;;;0.08;66.78
84712;BME280;74937;44.534;18.684;2024-01-30T00:35:58;101056.25;;;0.07;66.65
84712;BME280;74937;44.534;18.684;2024-01-30T00:38:24;101060.56;;;0.06;67.23
84712;BME280;74937;44.534;18.684;2024-01-30T00:40:50;101060.56;;;0.03;66.73
84712;BME280;74937;44.534;18.684;2024-01-30T00:43:15;101048.47;;;-0.12;66.52
84712;BME280;74937;44.534;18.684;2024-01-30T00:45:43;101045.88;;;-0.10;66.58
84712;BME280;74937;44.534;18.684;2024-01-30T00:48:09;101056.25;;;-0.06;66.92
84712;BME280;74937;44.534;18.684;2024-01-30T00:50:35;101056.22;;;-0.07;66.71
84712;BME280;74937;44.534;18.684;2024-01-30T00:53:00;101051.06;;;-0.03;66.55
84712;BME280;74937;44.534;18.684;2024-01-30T00:55:26;101056.25;;;-0.09;67.08
84712;BME280;74937;44.534;18.684;2024-01-30T00:57:52;101056.25;;;0.01;66.76
84712;BME280;74937;44.534;18.684;2024-01-30T01:00:18;101056.22;;;-0.13;66.54
84712;BME280;74937;44.534;18.684;2024-01-30T01:02:44;101056.22;;;-0.15;66.20
84712;BME280;74937;44.534;18.684;2024-01-30T01:05:10;101057.97;;;-0.26;66.78
84712;BME280;74937;44.534;18.684;2024-01-30T01:07:36;101055.34;;;-0.34;67.22
84712;BME280;74937;44.534;18.684;2024-01-30T01:10:02;101052.78;;;-0.23;66.72
84712;BME280;74937;44.534;18.684;2024-01-30T01:12:28;101059.66;;;-0.28;66.48
84712;BME280;74937;44.534;18.684;2024-01-30T01:14:53;101061.41;;;-0.24;65.93
84712;BME280;74937;44.534;18.684;2024-01-30T01:17:20;101061.38;;;-0.39;66.68
84712;BME280;74937;44.534;18.684;2024-01-30T01:19:45;101061.38;;;-0.45;66.84
84712;BME280;74937;44.534;18.684;2024-01-30T01:22:11;101057.88;;;-0.53;66.82
84712;BME280;74937;44.534;18.684;2024-01-30T01:24:37;101054.47;;;-0.51;66.33
84712;BME280;74937;44.534;18.684;2024-01-30T01:27:03;101052.72;;;-0.46;66.37
84712;BME280;74937;44.534;18.684;2024-01-30T01:29:28;101059.66;;;-0.45;66.24
84712;BME280;74937;44.534;18.684;2024-01-30T01:31:55;101048.41;;;-0.41;65.70
84712;BME280;74937;44.534;18.684;2024-01-30T01:34:21;101045.81;;;-0.51;66.30
84712;BME280;74937;44.534;18.684;2024-01-30T01:36:47;101051.84;;;-0.46;66.12
84712;BME280;74937;44.534;18.684;2024-01-30T01:39:13;101054.44;;;-0.52;66.26
84712;BME280;74937;44.534;18.684;2024-01-30T01:41:38;101042.31;;;-0.60;66.41
84712;BME280;74937;44.534;18.684;2024-01-30T01:44:04;101044.91;;;-0.66;66.18
84712;BME280;74937;44.534;18.684;2024-01-30T01:46:33;101054.41;;;-0.71;66.43
84712;BME280;74937;44.534;18.684;2024-01-30T01:49:00;101040.53;;;-0.80;67.00
84712;BME280;74937;44.534;18.684;2024-01-30T01:51:27;101046.56;;;-0.91;67.13
84712;BME280;74937;44.534;18.684;2024-01-30T01:53:56;101050.88;;;-0.88;67.70
84712;BME280;74937;44.534;18.684;2024-01-30T01:56:26;101047.47;;;-0.72;66.78
84712;BME280;74937;44.534;18.684;2024-01-30T01:58:54;101050.06;;;-0.76;66.91
84712;BME280;74937;44.534;18.684;2024-01-30T02:01:20;101048.34;;;-0.73;66.92
84712;BME280;74937;44.534;18.684;2024-01-30T02:03:46;101055.25;;;-0.72;66.48
84712;BME280;74937;44.534;18.684;2024-01-30T02:06:15;101051.78;;;-0.72;66.23
84712;BME280;74937;44.534;18.684;2024-01-30T02:08:42;101056.09;;;-0.73;66.41
84712;BME280;74937;44.534;18.684;2024-01-30T02:11:08;101054.34;;;-0.78;66.54
84712;BME280;74937;44.534;18.684;2024-01-30T02:13:36;101052.63;;;-0.83;66.92
84712;BME280;74937;44.534;18.684;2024-01-30T02:16:01;101056.03;;;-0.94;67.27
84712;BME280;74937;44.534;18.684;2024-01-30T02:18:27;101050.00;;;-0.93;67.05
84712;BME280;74937;44.534;18.684;2024-01-30T02:20:54;101057.75;;;-0.93;67.19
84712;BME280;74937;44.534;18.684;2024-01-30T02:23:24;101065.53;;;-0.87;66.27
84712;BME280;74937;44.534;18.684;2024-01-30T02:25:50;101059.50;;;-0.86;66.56
84712;BME280;74937;44.534;18.684;2024-01-30T02:28:19;101056.06;;;-0.88;66.22
84712;BME280;74937;44.534;18.684;2024-01-30T02:30:45;101055.19;;;-0.89;66.27
84712;BME280;74937;44.534;18.684;2024-01-30T02:33:11;101050.88;;;-0.88;66.29
84712;BME280;74937;44.534;18.684;2024-01-30T02:35:37;101056.88;;;-0.98;66.47
84712;BME280;74937;44.534;18.684;2024-01-30T02:38:03;101064.66;;;-0.95;66.33
84712;BME280;74937;44.534;18.684;2024-01-30T02:40:29;101061.22;;;-0.97;66.44
84712;BME280;74937;44.534;18.684;2024-01-30T02:42:55;101065.53;;;-0.98;66.45
84712;BME280;74937;44.534;18.684;2024-01-30T02:45:21;101061.19;;;-1.00;66.17
84712;BME280;74937;44.534;18.684;2024-01-30T02:47:47;101068.09;;;-1.04;66.51
84712;BME280;74937;44.534;18.684;2024-01-30T02:50:13;101064.63;;;-1.01;66.27
84712;BME280;74937;44.534;18.684;2024-01-30T02:52:40;101061.16;;;-1.08;65.91
84712;BME280;74937;44.534;18.684;2024-01-30T02:55:06;101061.16;;;-1.10;66.31
84712;BME280;74937;44.534;18.684;2024-01-30T02:57:32;101074.09;;;-1.10;65.81
84712;BME280;74937;44.534;18.684;2024-01-30T02:59:58;101066.25;;;-1.22;66.28
84712;BME280;74937;44.534;18.684;2024-01-30T03:02:23;101065.41;;;-1.18;65.96
84712;BME280;74937;44.534;18.684;2024-01-30T03:04:49;101061.09;;;-1.19;65.71
84712;BME280;74937;44.534;18.684;2024-01-30T03:07:15;101068.72;;;-1.39;65.14
84712;BME280;74937;44.534;18.684;2024-01-30T03:09:44;101067.94;;;-1.30;65.99
84712;BME280;74937;44.534;18.684;2024-01-30T03:12:09;101066.09;;;-1.46;66.20
84712;BME280;74937;44.534;18.684;2024-01-30T03:14:35;101065.28;;;-1.38;66.30
84712;BME280;74937;44.534;18.684;2024-01-30T03:17:01;101061.78;;;-1.44;66.70
84712;BME280;74937;44.534;18.684;2024-01-30T03:19:27;101063.50;;;-1.46;66.39
84712;BME280;74937;44.534;18.684;2024-01-30T03:21:52;101063.56;;;-1.43;66.16
84712;BME280;74937;44.534;18.684;2024-01-30T03:24:18;101067.06;;;-1.30;65.41
84712;BME280;74937;44.534;18.684;2024-01-30T03:26:44;101059.31;;;-1.29;65.32
84712;BME280;74937;44.534;18.684;2024-01-30T03:29:10;101061.91;;;-1.27;65.49
84712;BME280;74937;44.534;18.684;2024-01-30T03:31:35;101055.88;;;-1.28;64.85
84712;BME280;74937;44.534;18.684;2024-01-30T03:34:01;101055.00;;;-1.28;64.76
84712;BME280;74937;44.534;18.684;2024-01-30T03:36:27;101048.94;;;-1.37;65.17
84712;BME280;74937;44.534;18.684;2024-01-30T03:38:54;101059.25;;;-1.40;64.99
84712;BME280;74937;44.534;18.684;2024-01-30T03:41:19;101050.63;;;-1.40;65.53
84712;BME280;74937;44.534;18.684;2024-01-30T03:43:46;101047.13;;;-1.45;65.29
84712;BME280;74937;44.534;18.684;2024-01-30T03:46:12;101049.69;;;-1.53;65.07
84712;BME280;74937;44.534;18.684;2024-01-30T03:48:38;101052.25;;;-1.54;65.79
84712;BME280;74937;44.534;18.684;2024-01-30T03:51:05;101054.00;;;-1.50;65.32
84712;BME280;74937;44.534;18.684;2024-01-30T03:53:31;101056.59;;;-1.50;65.98
84712;BME280;74937;44.534;18.684;2024-01-30T03:55:56;101062.59;;;-1.54;65.54
84712;BME280;74937;44.534;18.684;2024-01-30T03:58:22;101063.50;;;-1.48;65.42
84712;BME280;74937;44.534;18.684;2024-01-30T04:00:48;101066.94;;;-1.50;65.22
84712;BME280;74937;44.534;18.684;2024-01-30T04:03:17;101060.09;;;-1.42;64.96
84712;BME280;74937;44.534;18.684;2024-01-30T04:05:42;101066.06;;;-1.52;64.58
84712;BME280;74937;44.534;18.684;2024-01-30T04:08:09;101071.28;;;-1.49;64.85
84712;BME280;74937;44.534;18.684;2024-01-30T04:10:34;101060.88;;;-1.51;65.07
84712;BME280;74937;44.534;18.684;2024-01-30T04:13:00;101065.28;;;-1.41;64.68
84712;BME280;74937;44.534;18.684;2024-01-30T04:15:26;101069.53;;;-1.49;64.56
84712;BME280;74937;44.534;18.684;2024-01-30T04:17:53;101073.81;;;-1.52;65.34
84712;BME280;74937;44.534;18.684;2024-01-30T04:20:19;101072.06;;;-1.58;64.79
84712;BME280;74937;44.534;18.684;2024-01-30T04:22:45;101072.03;;;-1.61;65.02
84712;BME280;74937;44.534;18.684;2024-01-30T04:25:12;101078.06;;;-1.62;65.77
84712;BME280;74937;44.534;18.684;2024-01-30T04:27:38;101074.63;;;-1.62;65.67
84712;BME280;74937;44.534;18.684;2024-01-30T04:30:04;101076.31;;;-1.65;65.79
84712;BME280;74937;44.534;18.684;2024-01-30T04:32:32;101076.31;;;-1.65;65.70
84712;BME280;74937;44.534;18.684;2024-01-30T04:34:57;101078.03;;;-1.67;65.64
84712;BME280;74937;44.534;18.684;2024-01-30T04:37:24;101077.16;;;-1.67;65.91
84712;BME280;74937;44.534;18.684;2024-01-30T04:39:50;101075.50;;;-1.59;65.30
84712;BME280;74937;44.534;18.684;2024-01-30T04:42:17;101076.34;;;-1.58;65.14
84712;BME280;74937;44.534;18.684;2024-01-30T04:44:42;101083.31;;;-1.51;65.08
84712;BME280;74937;44.534;18.684;2024-01-30T04:47:08;101083.31;;;-1.51;64.51
84712;BME280;74937;44.534;18.684;2024-01-30T04:49:36;101084.13;;;-1.60;64.39
84712;BME280;74937;44.534;18.684;2024-01-30T04:52:02;101088.38;;;-1.65;63.93
84712;BME280;74937;44.534;18.684;2024-01-30T04:54:28;101084.06;;;-1.68;64.14
84712;BME280;74937;44.534;18.684;2024-01-30T04:56:53;101086.56;;;-1.78;64.45
84712;BME280;74937;44.534;18.684;2024-01-30T04:59:19;101087.34;;;-1.85;64.74
84712;BME280;74937;44.534;18.684;2024-01-30T05:01:45;101089.88;;;-1.92;65.09
84712;BME280;74937;44.534;18.684;2024-01-30T05:04:10;101085.56;;;-1.93;65.11
84712;BME280;74937;44.534;18.684;2024-01-30T05:06:36;101084.66;;;-2.01;65.36
84712;BME280;74937;44.534;18.684;2024-01-30T05:09:02;101082.94;;;-2.02;65.73
84712;BME280;74937;44.534;18.684;2024-01-30T05:11:30;101086.44;;;-1.91;65.26
84712;BME280;74937;44.534;18.684;2024-01-30T05:13:56;101083.00;;;-1.91;64.72
84712;BME280;74937;44.534;18.684;2024-01-30T05:16:22;101086.44;;;-1.95;64.44
84712;BME280;74937;44.534;18.684;2024-01-30T05:18:47;101084.66;;;-1.99;65.12
84712;BME280;74937;44.534;18.684;2024-01-30T05:21:13;101082.97;;;-1.96;64.18
84712;BME280;74937;44.534;18.684;2024-01-30T05:23:39;101087.13;;;-2.13;65.80
84712;BME280;74937;44.534;18.684;2024-01-30T05:26:07;101090.44;;;-2.23;65.20
84712;BME280;74937;44.534;18.684;2024-01-30T05:28:33;101087.91;;;-2.19;65.49
84712;BME280;74937;44.534;18.684;2024-01-30T05:30:59;101094.88;;;-2.13;65.33
84712;BME280;74937;44.534;18.684;2024-01-30T05:33:25;101093.25;;;-2.00;64.80
84712;BME280;74937;44.534;18.684;2024-01-30T05:35:51;101088.91;;;-2.03;64.48
84712;BME280;74937;44.534;18.684;2024-01-30T05:38:19;101092.41;;;-2.01;64.53
84712;BME280;74937;44.534;18.684;2024-01-30T05:40:45;101099.28;;;-2.01;64.35
84712;BME280;74937;44.534;18.684;2024-01-30T05:43:11;101094.94;;;-2.05;64.67
84712;BME280;74937;44.534;18.684;2024-01-30T05:45:37;101094.88;;;-2.14;64.83
84712;BME280;74937;44.534;18.684;2024-01-30T05:48:04;101094.88;;;-2.14;65.13
84712;BME280;74937;44.534;18.684;2024-01-30T05:50:30;101097.50;;;-2.07;64.16
84712;BME280;74937;44.534;18.684;2024-01-30T05:52:55;101093.16;;;-2.09;64.14
84712;BME280;74937;44.534;18.684;2024-01-30T05:55:21;101097.56;;;-1.99;63.74
84712;BME280;74937;44.534;18.684;2024-01-30T05:57:47;101091.53;;;-2.01;64.25
84712;BME280;74937;44.534;18.684;2024-01-30T06:00:13;101096.72;;;-2.01;64.25
84712;BME280;74937;44.534;18.684;2024-01-30T06:02:39;101091.47;;;-2.07;64.50
84712;BME280;74937;44.534;18.684;2024-01-30T06:05:04;101098.50;;;-1.94;64.14
84712;BME280;74937;44.534;18.684;2024-01-30T06:07:31;101094.19;;;-1.95;63.82
84712;BME280;74937;44.534;18.684;2024-01-30T06:09:57;101101.94;;;-1.92;63.63
84712;BME280;74937;44.534;18.684;2024-01-30T06:12:22;101095.06;;;-1.93;63.46
84712;BME280;74937;44.534;18.684;2024-01-30T06:14:48;101101.03;;;-2.00;64.20
84712;BME280;74937;44.534;18.684;2024-01-30T06:17:13;101092.25;;;-2.16;64.47
84712;BME280;74937;44.534;18.684;2024-01-30T06:19:39;101102.56;;;-2.21;64.79
84712;BME280;74937;44.534;18.684;2024-01-30T06:22:05;101103.34;;;-2.26;64.76
84712;BME280;74937;44.534;18.684;2024-01-30T06:24:31;101094.69;;;-2.30;65.51
84712;BME280;74937;44.534;18.684;2024-01-30T06:26:56;101097.25;;;-2.31;65.25
84712;BME280;74937;44.534;18.684;2024-01-30T06:29:22;101099.03;;;-2.26;65.04
84712;BME280;74937;44.534;18.684;2024-01-30T06:31:50;101105.13;;;-2.19;64.88
84712;BME280;74937;44.534;18.684;2024-01-30T06:34:16;101100.97;;;-2.03;63.70
84712;BME280;74937;44.534;18.684;2024-01-30T06:36:42;101096.66;;;-2.03;64.01
84712;BME280;74937;44.534;18.684;2024-01-30T06:39:07;101100.22;;;-1.93;63.58
84712;BME280;74937;44.534;18.684;2024-01-30T06:41:33;101109.91;;;-1.66;62.67
84712;BME280;74937;44.534;18.684;2024-01-30T06:44:02;101104.25;;;-1.15;62.13
84712;BME280;74937;44.534;18.684;2024-01-30T06:46:29;101100.16;;;-0.61;60.10
84712;BME280;74937;44.534;18.684;2024-01-30T06:48:55;101096.84;;;0.06;57.25
84712;BME280;74937;44.534;18.684;2024-01-30T06:51:20;101093.38;;;0.70;55.00
84712;BME280;74937;44.534;18.684;2024-01-30T06:53:46;101095.78;;;1.37;53.28
84712;BME280;74937;44.534;18.684;2024-01-30T06:56:12;101102.34;;;1.99;51.32
84712;BME280;74937;44.534;18.684;2024-01-30T06:58:37;101106.19;;;2.61;49.33
84712;BME280;74937;44.534;18.684;2024-01-30T07:01:04;101099.56;;;3.11;47.97
84712;BME280;74937;44.534;18.684;2024-01-30T07:03:29;101104.28;;;3.54;46.66
84712;BME280;74937;44.534;18.684;2024-01-30T07:05:55;101096.59;;;4.05;45.30
84712;BME280;74937;44.534;18.684;2024-01-30T07:08:21;101102.16;;;4.38;44.55
84712;BME280;74937;44.534;18.684;2024-01-30T07:10:47;101098.03;;;4.74;43.58
84712;BME280;74937;44.534;18.684;2024-01-30T07:13:13;101101.63;;;5.16;42.48
84712;BME280;74937;44.534;18.684;2024-01-30T07:15:42;101101.41;;;5.25;41.40
84712;BME280;74937;44.534;18.684;2024-01-30T07:18:08;101108.69;;;5.54;41.29
84712;BME280;74937;44.534;18.684;2024-01-30T07:20:35;101107.78;;;5.55;40.97
84712;BME280;74937;44.534;18.684;2024-01-30T07:23:01;101105.75;;;5.68;41.20
84712;BME280;74937;44.534;18.684;2024-01-30T07:25:27;101108.59;;;5.97;40.74
84712;BME280;74937;44.534;18.684;2024-01-30T07:27:55;101102.00;;;6.20;40.15
84712;BME280;74937;44.534;18.684;2024-01-30T07:30:22;101107.38;;;6.14;40.80
84712;BME280;74937;44.534;18.684;2024-01-30T07:32:49;101110.94;;;6.10;40.87
84712;BME280;74937;44.534;18.684;2024-01-30T07:35:15;101105.53;;;5.77;41.42
84712;BME280;74937;44.534;18.684;2024-01-30T07:37:40;101103.25;;;5.22;43.55
84712;BME280;74937;44.534;18.684;2024-01-30T07:40:07;101113.28;;;4.98;43.84
84712;BME280;74937;44.534;18.684;2024-01-30T07:42:33;101102.00;;;4.95;44.40
84712;BME280;74937;44.534;18.684;2024-01-30T07:45:00;101105.50;;;4.94;44.88
84712;BME280;74937;44.534;18.684;2024-01-30T07:47:25;101102.63;;;5.07;44.41
84712;BME280;74937;44.534;18.684;2024-01-30T07:49:51;101103.50;;;5.08;44.59
84712;BME280;74937;44.534;18.684;2024-01-30T07:52:17;101104.84;;;5.27;44.78
84712;BME280;74937;44.534;18.684;2024-01-30T07:54:42;101111.31;;;5.53;44.41
84712;BME280;74937;44.534;18.684;2024-01-30T07:57:08;101111.03;;;5.65;44.19
84712;BME280;74937;44.534;18.684;2024-01-30T07:59:34;101103.56;;;5.88;43.67
84712;BME280;74937;44.534;18.684;2024-01-30T08:02:01;101105.09;;;5.98;43.54
84712;BME280;74937;44.534;18.684;2024-01-30T08:04:27;101103.81;;;6.16;43.64
84712;BME280;74937;44.534;18.684;2024-01-30T08:06:52;101105.38;;;6.23;43.09
84712;BME280;74937;44.534;18.684;2024-01-30T08:09:18;101104.59;;;6.20;43.16
84712;BME280;74937;44.534;18.684;2024-01-30T08:11:44;101106.03;;;6.33;43.70
84712;BME280;74937;44.534;18.684;2024-01-30T08:14:09;101101.00;;;6.60;43.68
84712;BME280;74937;44.534;18.684;2024-01-30T08:16:35;101102.88;;;6.87;43.25
84712;BME280;74937;44.534;18.684;2024-01-30T08:19:01;101092.44;;;7.17;42.78
84712;BME280;74937;44.534;18.684;2024-01-30T08:21:26;101092.84;;;7.34;42.57
84712;BME280;74937;44.534;18.684;2024-01-30T08:23:52;101092.44;;;7.48;42.19
84712;BME280;74937;44.534;18.684;2024-01-30T08:26:18;101096.78;;;7.49;41.80
84712;BME280;74937;44.534;18.684;2024-01-30T08:28:43;101100.19;;;7.52;41.60
84712;BME280;74937;44.534;18.684;2024-01-30T08:31:12;101093.56;;;7.39;41.60
84712;BME280;74937;44.534;18.684;2024-01-30T08:33:38;101096.09;;;7.42;42.03
84712;BME280;74937;44.534;18.684;2024-01-30T08:36:04;101097.06;;;7.40;42.37
84712;BME280;74937;44.534;18.684;2024-01-30T08:38:29;101099.31;;;7.52;42.21
84712;BME280;74937;44.534;18.684;2024-01-30T08:40:56;101099.09;;;7.59;42.82
84712;BME280;74937;44.534;18.684;2024-01-30T08:43:21;101095.38;;;7.67;42.78
84712;BME280;74937;44.534;18.684;2024-01-30T08:45:47;101096.59;;;7.55;43.52
84712;BME280;74937;44.534;18.684;2024-01-30T08:48:13;101099.66;;;7.40;43.46
84712;BME280;74937;44.534;18.684;2024-01-30T08:50:38;101096.88;;;7.46;44.30
84712;BME280;74937;44.534;18.684;2024-01-30T08:53:04;101093.94;;;7.56;44.44
84712;BME280;74937;44.534;18.684;2024-01-30T08:55:30;101089.25;;;7.66;44.13
84712;BME280;74937;44.534;18.684;2024-01-30T08:57:56;101087.75;;;7.87;44.34
84712;BME280;74937;44.534;18.684;2024-01-30T09:00:22;101088.69;;;8.12;43.68
84712;BME280;74937;44.534;18.684;2024-01-30T09:02:47;101091.69;;;8.28;43.26
84712;BME280;74937;44.534;18.684;2024-01-30T09:05:13;101090.63;;;8.35;43.34
84712;BME280;74937;44.534;18.684;2024-01-30T09:07:39;101087.78;;;8.41;43.32
84712;BME280;74937;44.534;18.684;2024-01-30T09:10:05;101083.94;;;8.52;42.71
84712;BME280;74937;44.534;18.684;2024-01-30T09:12:31;101088.25;;;8.54;42.91
84712;BME280;74937;44.534;18.684;2024-01-30T09:14:57;101085.63;;;8.54;43.42
84712;BME280;74937;44.534;18.684;2024-01-30T09:17:23;101096.06;;;8.56;43.56
84712;BME280;74937;44.534;18.684;2024-01-30T09:19:48;101091.28;;;8.67;43.41
84712;BME280;74937;44.534;18.684;2024-01-30T09:22:14;101089.16;;;8.78;43.28
84712;BME280;74937;44.534;18.684;2024-01-30T09:24:40;101083.88;;;8.78;43.20
84712;BME280;74937;44.534;18.684;2024-01-30T09:27:06;101089.69;;;8.88;42.78
84712;BME280;74937;44.534;18.684;2024-01-30T09:29:32;101080.03;;;9.13;42.50
84712;BME280;74937;44.534;18.684;2024-01-30T09:32:00;101082.88;;;9.54;41.59
84712;BME280;74937;44.534;18.684;2024-01-30T09:34:25;101083.56;;;9.59;41.25
84712;BME280;74937;44.534;18.684;2024-01-30T09:36:51;101083.44;;;9.62;41.59
84712;BME280;74937;44.534;18.684;2024-01-30T09:39:17;101085.28;;;9.82;41.27
84712;BME280;74937;44.534;18.684;2024-01-30T09:44:20;101080.16;;;10.01;40.54
84712;BME280;74937;44.534;18.684;2024-01-30T09:46:47;101076.25;;;10.11;40.91
84712;BME280;74937;44.534;18.684;2024-01-30T09:49:15;101070.38;;;10.26;41.17
84712;BME280;74937;44.534;18.684;2024-01-30T09:51:44;101070.81;;;10.58;40.00
84712;BME280;74937;44.534;18.684;2024-01-30T09:54:14;101069.47;;;10.88;39.56
84712;BME280;74937;44.534;18.684;2024-01-30T09:56:40;101063.78;;;11.18;38.75
84712;BME280;74937;44.534;18.684;2024-01-30T09:59:06;101066.16;;;11.43;38.29
84712;BME280;74937;44.534;18.684;2024-01-30T10:01:34;101064.03;;;11.12;38.37
84712;BME280;74937;44.534;18.684;2024-01-30T10:04:00;101055.97;;;10.96;38.84
84712;BME280;74937;44.534;18.684;2024-01-30T10:06:26;101060.34;;;10.77;39.73
84712;BME280;74937;44.534;18.684;2024-01-30T10:08:53;101051.56;;;10.76;39.31
84712;BME280;74937;44.534;18.684;2024-01-30T10:11:19;101044.09;;;10.86;38.69
84712;BME280;74937;44.534;18.684;2024-01-30T10:13:45;101037.03;;;10.86;38.71
84712;BME280;74937;44.534;18.684;2024-01-30T10:16:13;101033.53;;;10.86;38.68
84712;BME280;74937;44.534;18.684;2024-01-30T10:18:41;101034.28;;;10.90;38.73
84712;BME280;74937;44.534;18.684;2024-01-30T10:21:07;101030.28;;;11.00;38.35
84712;BME280;74937;44.534;18.684;2024-01-30T10:23:33;101032.00;;;11.01;38.38
84712;BME280;74937;44.534;18.684;2024-01-30T10:25:59;101021.66;;;10.96;38.93
84712;BME280;74937;44.534;18.684;2024-01-30T10:28:27;101023.56;;;10.93;38.66
84712;BME280;74937;44.534;18.684;2024-01-30T10:30:59;101016.16;;;11.01;38.97
84712;BME280;74937;44.534;18.684;2024-01-30T10:33:26;101008.13;;;11.04;38.20
84712;BME280;74937;44.534;18.684;2024-01-30T10:35:59;101004.94;;;11.16;38.15
84712;BME280;74937;44.534;18.684;2024-01-30T10:38:25;100999.00;;;11.11;38.33
84712;BME280;74937;44.534;18.684;2024-01-30T10:40:56;101006.47;;;11.20;38.58
84712;BME280;74937;44.534;18.684;2024-01-30T10:43:22;100991.22;;;11.46;37.43
84712;BME280;74937;44.534;18.684;2024-01-30T10:45:52;100998.50;;;11.40;37.39
84712;BME280;74937;44.534;18.684;2024-01-30T10:48:23;100994.66;;;11.48;37.24
84712;BME280;74937;44.534;18.684;2024-01-30T10:50:55;100986.75;;;11.48;37.04
84712;BME280;74937;44.534;18.684;2024-01-30T10:53:23;100991.00;;;11.50;36.79
84712;BME280;74937;44.534;18.684;2024-01-30T10:55:51;100975.09;;;11.52;37.02
84712;BME280;74937;44.534;18.684;2024-01-30T10:58:17;100976.50;;;11.59;36.21
84712;BME280;74937;44.534;18.684;2024-01-30T11:00:44;100966.22;;;11.53;36.13
84712;BME280;74937;44.534;18.684;2024-01-30T11:03:11;100964.25;;;11.39;35.95
84712;BME280;74937;44.534;18.684;2024-01-30T11:05:40;100961.63;;;11.20;36.18
84712;BME280;74937;44.534;18.684;2024-01-30T11:08:13;100951.06;;;11.20;36.34
84712;BME280;74937;44.534;18.684;2024-01-30T11:10:46;100958.56;;;11.10;35.84
84712;BME280;74937;44.534;18.684;2024-01-30T11:13:29;100960.94;;;11.17;35.96
84712;BME280;74937;44.534;18.684;2024-01-30T11:15:59;100950.84;;;11.25;35.41
84712;BME280;74937;44.534;18.684;2024-01-30T11:18:26;100955.34;;;11.41;34.65
84712;BME280;74937;44.534;18.684;2024-01-30T11:20:58;100952.25;;;11.51;32.99
84712;BME280;74937;44.534;18.684;2024-01-30T11:23:29;100952.09;;;11.54;33.13
84712;BME280;74937;44.534;18.684;2024-01-30T11:25:56;100936.81;;;11.60;32.62
84712;BME280;74937;44.534;18.684;2024-01-30T11:28:23;100943.03;;;11.59;32.23
84712;BME280;74937;44.534;18.684;2024-01-30T11:30:49;100942.09;;;11.60;31.33
84712;BME280;74937;44.534;18.684;2024-01-30T11:33:30;100937.81;;;11.58;31.80
84712;BME280;74937;44.534;18.684;2024-01-30T11:35:57;100927.13;;;11.61;32.03
84712;BME280;74937;44.534;18.684;2024-01-30T11:38:26;100934.94;;;11.26;32.36
84712;BME280;74937;44.534;18.684;2024-01-30T11:40:54;100936.81;;;11.24;32.89
84712;BME280;74937;44.534;18.684;2024-01-30T11:43:21;100936.66;;;11.27;32.53
84712;BME280;74937;44.534;18.684;2024-01-30T11:45:46;100932.00;;;11.32;32.74
84712;BME280;74937;44.534;18.684;2024-01-30T11:48:12;100923.25;;;11.32;32.34
84712;BME280;74937;44.534;18.684;2024-01-30T11:50:39;100918.81;;;11.32;32.45
84712;BME280;74937;44.534;18.684;2024-01-30T11:53:10;100917.41;;;11.25;32.76
84712;BME280;74937;44.534;18.684;2024-01-30T11:55:36;100911.06;;;11.10;33.31
84712;BME280;74937;44.534;18.684;2024-01-30T11:58:03;100910.91;;;10.95;33.11
84712;BME280;74937;44.534;18.684;2024-01-30T12:00:29;100912.41;;;10.63;33.42
84712;BME280;74937;44.534;18.684;2024-01-30T12:02:56;100903.06;;;10.55;33.92
84712;BME280;74937;44.534;18.684;2024-01-30T12:05:23;100902.94;;;10.58;34.05
84712;BME280;74937;44.534;18.684;2024-01-30T12:07:49;100888.75;;;10.61;33.36
84712;BME280;74937;44.534;18.684;2024-01-30T12:10:15;100897.09;;;10.52;33.56
84712;BME280;74937;44.534;18.684;2024-01-30T12:12:46;100895.50;;;10.48;33.63
84712;BME280;74937;44.534;18.684;2024-01-30T12:15:13;100889.16;;;10.52;34.37
84712;BME280;74937;44.534;18.684;2024-01-30T12:17:40;100886.38;;;10.55;34.10
84712;BME280;74937;44.534;18.684;2024-01-30T12:20:18;100883.91;;;10.52;34.00
84712;BME280;74937;44.534;18.684;2024-01-30T12:22:46;100885.19;;;10.23;34.53
84712;BME280;74937;44.534;18.684;2024-01-30T12:25:20;100879.81;;;10.04;35.55
84712;BME280;74937;44.534;18.684;2024-01-30T12:27:50;100883.13;;;10.09;35.18
84712;BME280;74937;44.534;18.684;2024-01-30T12:30:17;100876.28;;;10.05;35.52
84712;BME280;74937;44.534;18.684;2024-01-30T12:32:45;100872.66;;;10.07;35.35
84712;BME280;74937;44.534;18.684;2024-01-30T12:35:17;100869.84;;;10.12;34.99
84712;BME280;74937;44.534;18.684;2024-01-30T12:37:55;100874.59;;;9.41;35.08
84712;BME280;74937;44.534;18.684;2024-01-30T12:40:21;100861.00;;;9.52;35.67
84712;BME280;74937;44.534;18.684;2024-01-30T12:42:47;100867.47;;;9.65;36.04